Time;durP1;ratioP1;P1;durP2;ratioP2;P2;SDS_P1;SDS_P2;PMS_P1;PMS_P2;Temp;Humidity;BMP_temperature;BMP_pressure;BME280_temperature;BME280_humidity;BME280_pressure;Samples;Min_cycle;Max_cycle;Signal;HPM_P1;HPM_P2
2024/01/21 00:02:41;;;;;;;;;;;17.70;52.40;;;;;;10283214;28;93558;-63
2024/01/21 00:07:43;;;;;;;;;;;17.70;52.40;;;;;;10265186;28;92806;-63
2024/01/21 00:12:44;;;;;;;;;;;17.60;52.40;;;;;;10281557;28;93749;-63
2024/01/21 00:17:46;;;;;;;;;;;17.50;52.40;;;;;;10265365;28;94341;-64
2024/01/21 00:22:48;;;;;;;;;;;17.50;52.50;;;;;;10273396;28;92986;-64
2024/01/21 00:27:50;;;;;;;;;;;17.40;52.50;;;;;;10264656;28;96386;-65
2024/01/21 00:32:52;;;;;;;;;;;17.30;52.70;;;;;;10274861;28;93651;-65
2024/01/21 00:37:54;;;;;;;;;;;17.30;52.70;;;;;;10271520;28;94059;-64
2024/01/21 00:42:58;;;;;;;;;;;17.20;52.70;;;;;;10266482;28;93416;-63
2024/01/21 00:48:00;;;;;;;;;;;17.10;52.70;;;;;;10255387;28;93459;-72
2024/01/21 00:53:02;;;;;;;;;;;17.10;52.90;;;;;;10265409;28;93775;-64
2024/01/21 00:58:04;;;;;;;;;;;17.10;52.90;;;;;;10275784;28;93491;-64
2024/01/21 01:03:06;;;;;;;;;;;17.00;52.80;;;;;;10266849;28;94905;-65
2024/01/21 01:08:08;;;;;;;;;;;16.90;52.80;;;;;;10259010;28;94488;-64
2024/01/21 01:13:10;;;;;;;;;;;16.90;52.90;;;;;;10273312;28;93458;-63
2024/01/21 01:18:13;;;;;;;;;;;16.90;52.80;;;;;;10272473;28;95801;-63
2024/01/21 01:23:16;;;;;;;;;;;16.80;52.80;;;;;;10278074;28;94435;-64
2024/01/21 01:28:17;;;;;;;;;;;16.70;52.70;;;;;;10262242;28;94708;-63
2024/01/21 01:33:19;;;;;;;;;;;16.70;52.70;;;;;;10271551;28;94407;-64
2024/01/21 01:38:21;;;;;;;;;;;16.60;52.50;;;;;;10256746;28;94320;-63
2024/01/21 01:43:23;;;;;;;;;;;16.60;52.50;;;;;;10273678;28;93576;-64
2024/01/21 01:48:25;;;;;;;;;;;16.60;52.70;;;;;;10277961;28;93440;-64
2024/01/21 01:53:28;;;;;;;;;;;16.50;52.60;;;;;;10281731;28;93588;-64
2024/01/21 01:58:31;;;;;;;;;;;16.50;52.50;;;;;;10289238;28;94645;-63
2024/01/21 02:03:33;;;;;;;;;;;16.50;52.50;;;;;;10674550;22;95056;-47
2024/01/21 02:08:35;;;;;;;;;;;16.40;52.40;;;;;;10306712;28;95784;-45
2024/01/21 02:13:37;;;;;;;;;;;16.40;52.50;;;;;;10313153;28;94979;-44
2024/01/21 02:18:40;;;;;;;;;;;16.40;52.40;;;;;;10316845;28;94937;-46
2024/01/21 02:23:43;;;;;;;;;;;16.40;52.10;;;;;;10322742;28;94754;-48
2024/01/21 02:28:45;;;;;;;;;;;16.40;52.10;;;;;;10315357;28;93352;-52
2024/01/21 02:33:46;;;;;;;;;;;16.40;51.90;;;;;;10320511;28;94423;-49
2024/01/21 02:38:48;;;;;;;;;;;16.50;51.70;;;;;;10321691;28;93608;-48
2024/01/21 02:43:50;;;;;;;;;;;16.50;51.50;;;;;;10321365;28;93078;-48
2024/01/21 02:48:52;;;;;;;;;;;16.50;51.30;;;;;;10315000;28;94553;-49
2024/01/21 02:53:54;;;;;;;;;;;16.40;51.10;;;;;;10306087;28;94162;-49
2024/01/21 02:58:56;;;;;;;;;;;16.40;51.10;;;;;;10317209;28;96932;-47
2024/01/21 03:03:58;;;;;;;;;;;16.40;51.30;;;;;;10308557;28;93847;-49
2024/01/21 03:09:00;;;;;;;;;;;16.40;51.20;;;;;;10325662;28;94575;-50
2024/01/21 03:14:02;;;;;;;;;;;16.50;51.20;;;;;;10325949;28;93637;-50
2024/01/21 03:19:04;;;;;;;;;;;16.50;51.00;;;;;;10327980;28;96586;-50
2024/01/21 03:24:06;;;;;;;;;;;16.50;50.80;;;;;;10317178;28;94226;-48
2024/01/21 03:29:08;;;;;;;;;;;16.40;50.80;;;;;;10320708;28;93221;-50
2024/01/21 03:34:09;;;;;;;;;;;16.40;50.80;;;;;;10315502;28;92777;-49
2024/01/21 03:39:12;;;;;;;;;;;16.30;50.70;;;;;;10318500;28;94769;-50
2024/01/21 03:44:14;;;;;;;;;;;16.30;50.70;;;;;;10309239;28;93915;-56
2024/01/21 03:49:16;;;;;;;;;;;16.30;51.00;;;;;;10290597;28;96784;-50
2024/01/21 03:54:18;;;;;;;;;;;16.40;50.70;;;;;;10314424;28;94874;-50
2024/01/21 03:59:20;;;;;;;;;;;16.40;50.60;;;;;;10308495;28;93431;-49
2024/01/21 04:04:22;;;;;;;;;;;16.40;50.50;;;;;;10324505;28;95371;-49
2024/01/21 04:09:24;;;;;;;;;;;16.40;50.50;;;;;;10324011;28;94412;-48
2024/01/21 04:14:26;;;;;;;;;;;16.30;50.40;;;;;;10317611;28;94474;-46
2024/01/21 04:19:28;;;;;;;;;;;16.30;50.30;;;;;;10292786;28;92816;-46
2024/01/21 04:24:30;;;;;;;;;;;16.30;50.40;;;;;;10307893;28;92732;-47
2024/01/21 04:29:32;;;;;;;;;;;16.30;50.30;;;;;;10319794;28;93453;-47
2024/01/21 04:34:34;;;;;;;;;;;16.30;50.40;;;;;;10314667;28;94459;-45
2024/01/21 04:39:36;;;;;;;;;;;16.30;50.20;;;;;;10312101;28;96836;-48
2024/01/21 04:44:38;;;;;;;;;;;16.30;50.10;;;;;;10319214;28;94789;-46
2024/01/21 04:49:40;;;;;;;;;;;16.30;50.00;;;;;;10318778;28;94548;-49
2024/01/21 04:54:42;;;;;;;;;;;16.30;49.90;;;;;;10311044;28;94419;-47
2024/01/21 04:59:44;;;;;;;;;;;16.30;49.90;;;;;;10320532;28;93589;-50
2024/01/21 05:04:46;;;;;;;;;;;16.30;50.00;;;;;;10321047;28;94760;-49
2024/01/21 05:09:47;;;;;;;;;;;16.20;50.10;;;;;;10317851;28;94835;-47
2024/01/21 05:14:49;;;;;;;;;;;16.20;50.00;;;;;;10315922;28;92676;-51
2024/01/21 05:19:51;;;;;;;;;;;16.20;50.00;;;;;;10319675;28;93451;-46
2024/01/21 05:24:53;;;;;;;;;;;16.30;49.80;;;;;;10318718;28;93344;-48
2024/01/21 05:29:55;;;;;;;;;;;16.30;49.80;;;;;;10311739;28;96473;-48
2024/01/21 05:34:57;;;;;;;;;;;16.30;49.60;;;;;;10305218;28;94000;-51
2024/01/21 05:39:59;;;;;;;;;;;16.20;49.70;;;;;;10315306;28;93628;-47
2024/01/21 05:45:05;;;;;;;;;;;16.30;49.70;;;;;;10310302;28;92927;-44
2024/01/21 05:50:07;;;;;;;;;;;16.50;49.60;;;;;;10320549;28;94448;-49
2024/01/21 05:55:09;;;;;;;;;;;16.80;49.30;;;;;;10319604;28;92838;-51
2024/01/21 06:00:12;;;;;;;;;;;17.00;48.70;;;;;;10322462;28;94490;-47
2024/01/21 06:05:15;;;;;;;;;;;17.20;48.50;;;;;;10316783;28;94607;-51
2024/01/21 06:10:17;;;;;;;;;;;17.30;48.20;;;;;;10316885;28;94587;-49
2024/01/21 06:15:19;;;;;;;;;;;17.40;47.90;;;;;;10314113;28;93181;-47
2024/01/21 06:20:21;;;;;;;;;;;17.60;48.70;;;;;;10315284;28;95292;-49
2024/01/21 06:25:23;;;;;;;;;;;17.80;47.50;;;;;;10312801;28;93454;-51
2024/01/21 06:30:26;;;;;;;;;;;17.90;47.20;;;;;;10311101;28;94166;-48
2024/01/21 06:35:28;;;;;;;;;;;18.00;46.90;;;;;;10314165;28;93976;-48
2024/01/21 06:40:29;;;;;;;;;;;18.20;46.70;;;;;;10318669;28;93702;-46
2024/01/21 06:45:31;;;;;;;;;;;18.20;46.60;;;;;;10315449;28;94434;-46
2024/01/21 06:50:33;;;;;;;;;;;18.40;46.50;;;;;;10316891;28;94749;-50
2024/01/21 06:55:35;;;;;;;;;;;18.40;46.30;;;;;;10326584;28;93740;-53
2024/01/21 07:00:37;;;;;;;;;;;18.40;46.10;;;;;;10324461;28;94298;-50
2024/01/21 07:05:39;;;;;;;;;;;18.30;46.20;;;;;;10320308;28;94039;-49
2024/01/21 07:10:41;;;;;;;;;;;18.20;46.20;;;;;;10323028;28;96751;-50
2024/01/21 07:15:43;;;;;;;;;;;18.20;46.30;;;;;;10325815;28;94632;-50
2024/01/21 07:20:46;;;;;;;;;;;18.20;46.60;;;;;;10314143;28;93415;-47
2024/01/21 07:25:48;;;;;;;;;;;18.20;46.50;;;;;;10319857;28;94431;-47
2024/01/21 07:30:50;;;;;;;;;;;18.30;46.70;;;;;;10312380;28;93480;-46
2024/01/21 07:35:52;;;;;;;;;;;18.40;46.50;;;;;;10322620;28;94699;-46
2024/01/21 07:40:53;;;;;;;;;;;18.50;46.60;;;;;;10319548;28;95339;-46
2024/01/21 07:45:55;;;;;;;;;;;18.60;46.60;;;;;;10317214;28;93704;-50
2024/01/21 07:50:57;;;;;;;;;;;18.60;47.00;;;;;;10314607;28;93466;-45
2024/01/21 07:55:59;;;;;;;;;;;18.50;47.20;;;;;;10315414;28;94479;-48
2024/01/21 08:01:00;;;;;;;;;;;18.50;47.60;;;;;;10318160;28;95968;-45
2024/01/21 08:06:04;;;;;;;;;;;18.50;47.70;;;;;;10314134;28;94302;-44
2024/01/21 08:11:06;;;;;;;;;;;18.50;47.80;;;;;;10313346;28;94473;-48
2024/01/21 08:16:08;;;;;;;;;;;18.60;47.60;;;;;;10314276;28;93487;-46
2024/01/21 08:21:10;;;;;;;;;;;18.60;47.60;;;;;;10319539;28;93397;-46
2024/01/21 08:26:11;;;;;;;;;;;18.60;47.40;;;;;;10315228;28;94047;-44
2024/01/21 08:31:16;;;;;;;;;;;18.50;47.50;;;;;;10316948;28;114089;-46
2024/01/21 08:36:17;;;;;;;;;;;18.40;48.00;;;;;;10314260;28;93276;-45
2024/01/21 08:41:19;;;;;;;;;;;18.50;47.70;;;;;;10313672;28;94458;-50
2024/01/21 08:46:21;;;;;;;;;;;18.50;47.70;;;;;;10314350;28;93404;-49
2024/01/21 08:51:23;;;;;;;;;;;18.40;47.50;;;;;;10309090;28;96470;-51
2024/01/21 08:56:25;;;;;;;;;;;18.40;47.70;;;;;;10309451;28;94593;-47
2024/01/21 09:01:27;;;;;;;;;;;18.20;47.80;;;;;;10319783;28;94729;-49
2024/01/21 09:06:29;;;;;;;;;;;18.10;47.80;;;;;;10303252;28;93452;-46
2024/01/21 09:11:33;;;;;;;;;;;17.90;47.80;;;;;;10311072;28;97670;-58
2024/01/21 09:16:35;;;;;;;;;;;17.80;47.80;;;;;;10307989;28;93486;-46
2024/01/21 09:21:37;;;;;;;;;;;17.70;48.10;;;;;;10322638;28;94166;-47
2024/01/21 09:26:39;;;;;;;;;;;17.60;48.20;;;;;;10319148;28;93452;-49
2024/01/21 09:31:41;;;;;;;;;;;17.50;48.30;;;;;;10319506;28;94347;-46
2024/01/21 09:36:44;;;;;;;;;;;17.40;48.50;;;;;;10299057;28;94562;-50
2024/01/21 09:41:50;;;;;;;;;;;17.30;48.50;;;;;;10318386;28;97541;-51
2024/01/21 09:46:52;;;;;;;;;;;17.20;48.70;;;;;;10318730;28;93637;-49
2024/01/21 09:51:54;;;;;;;;;;;17.10;48.70;;;;;;10318290;28;93422;-48
2024/01/21 09:56:56;;;;;;;;;;;17.10;48.90;;;;;;10319233;28;93403;-57
2024/01/21 10:01:58;;;;;;;;;;;17.10;48.90;;;;;;10312988;28;94608;-53
2024/01/21 10:07:00;;;;;;;;;;;17.10;48.90;;;;;;10312867;28;93787;-51
2024/01/21 10:12:02;;;;;;;;;;;17.10;48.90;;;;;;10308879;28;94143;-45
2024/01/21 10:17:04;;;;;;;;;;;17.20;48.80;;;;;;10326121;28;92727;-49
2024/01/21 10:22:16;;;;;;;;;;;17.30;48.70;;;;;;10324023;28;94397;-48
2024/01/21 10:27:18;;;;;;;;;;;17.30;48.40;;;;;;10326679;28;93384;-46
2024/01/21 10:32:21;;;;;;;;;;;17.40;48.30;;;;;;10316275;28;95435;-47
2024/01/21 10:37:23;;;;;;;;;;;17.40;48.20;;;;;;10303934;28;93411;-44
2024/01/21 10:42:25;;;;;;;;;;;17.30;48.40;;;;;;10311448;28;95246;-48
2024/01/21 10:47:28;;;;;;;;;;;17.30;48.40;;;;;;10324008;28;94624;-49
2024/01/21 10:52:30;;;;;;;;;;;17.50;48.30;;;;;;10327238;28;93531;-48
2024/01/21 10:57:32;;;;;;;;;;;17.70;48.00;;;;;;10300481;28;94088;-48
2024/01/21 11:02:34;;;;;;;;;;;17.90;47.60;;;;;;10325400;28;95107;-51
2024/01/21 11:07:37;;;;;;;;;;;18.10;47.20;;;;;;10324729;28;92846;-50
2024/01/21 11:12:39;;;;;;;;;;;18.30;47.00;;;;;;10324448;28;94628;-49
2024/01/21 11:17:41;;;;;;;;;;;18.40;46.90;;;;;;10315291;28;93306;-45
2024/01/21 11:22:43;;;;;;;;;;;18.40;46.70;;;;;;10301876;28;96900;-48
2024/01/21 11:27:45;;;;;;;;;;;18.40;46.50;;;;;;10308814;28;93567;-44
2024/01/21 11:32:57;;;;;;;;;;;18.30;46.60;;;;;;10303295;28;94346;-49
2024/01/21 11:37:59;;;;;;;;;;;18.30;46.80;;;;;;10307865;28;94298;-48
2024/01/21 11:43:02;;;;;;;;;;;18.20;48.80;;;;;;10309346;28;93452;-50
2024/01/21 11:48:09;;;;;;;;;;;18.20;48.60;;;;;;10304595;28;93840;-44
2024/01/21 11:53:11;;;;;;;;;;;18.10;49.00;;;;;;10303182;28;93473;-47
2024/01/21 11:58:14;;;;;;;;;;;18.10;49.20;;;;;;10323372;28;93970;-47
2024/01/21 12:03:16;;;;;;;;;;;18.20;49.50;;;;;;10312006;28;92995;-47
2024/01/21 12:08:18;;;;;;;;;;;18.30;51.20;;;;;;10312095;28;94586;-45
2024/01/21 12:13:20;;;;;;;;;;;18.50;51.10;;;;;;10309660;28;96836;-46
2024/01/21 12:18:22;;;;;;;;;;;18.80;50.40;;;;;;10316013;28;94374;-45
2024/01/21 12:23:25;;;;;;;;;;;18.90;50.00;;;;;;10296786;28;98110;-44
2024/01/21 12:28:27;;;;;;;;;;;19.00;49.80;;;;;;10309797;28;94444;-46
2024/01/21 12:33:29;;;;;;;;;;;19.10;49.90;;;;;;10316136;28;94299;-45
2024/01/21 12:38:31;;;;;;;;;;;19.20;49.80;;;;;;10320456;28;94557;-47
2024/01/21 12:43:34;;;;;;;;;;;19.40;49.60;;;;;;10315477;28;95277;-49
2024/01/21 12:48:35;;;;;;;;;;;19.30;49.60;;;;;;10302746;28;92821;-44
2024/01/21 12:53:38;;;;;;;;;;;19.30;49.50;;;;;;10317812;28;93670;-46
2024/01/21 12:58:40;;;;;;;;;;;19.30;49.50;;;;;;10347922;28;93380;-45
2024/01/21 13:03:43;;;;;;;;;;;19.30;49.40;;;;;;10326685;28;96119;-62
2024/01/21 13:08:46;;;;;;;;;;;19.40;49.40;;;;;;10353104;27;93581;-46
2024/01/21 13:13:49;;;;;;;;;;;19.50;49.10;;;;;;10320165;28;94440;-48
2024/01/21 13:18:51;;;;;;;;;;;19.60;49.00;;;;;;10307902;28;92948;-49
2024/01/21 13:23:53;;;;;;;;;;;19.70;48.80;;;;;;10304261;28;94187;-45
2024/01/21 13:34:09;;;;;;;;;;;19.50;48.70;;;;;;10321851;28;94231;-47
2024/01/21 13:39:12;;;;;;;;;;;19.50;49.10;;;;;;10313121;28;95207;-46
2024/01/21 13:44:14;;;;;;;;;;;19.50;49.20;;;;;;10322267;28;93547;-50
2024/01/21 13:49:17;;;;;;;;;;;19.50;49.10;;;;;;10313497;28;94188;-46
2024/01/21 13:54:19;;;;;;;;;;;19.60;49.00;;;;;;10316797;28;96014;-47
2024/01/21 13:59:21;;;;;;;;;;;19.70;48.90;;;;;;10317514;28;93433;-47
2024/01/21 14:04:23;;;;;;;;;;;19.70;50.10;;;;;;10322134;28;94485;-47
2024/01/21 14:09:25;;;;;;;;;;;19.70;49.50;;;;;;10318596;28;93543;-49
2024/01/21 14:14:28;;;;;;;;;;;19.60;49.40;;;;;;10313321;28;93085;-48
2024/01/21 14:19:30;;;;;;;;;;;19.50;49.50;;;;;;10317314;28;93407;-46
2024/01/21 14:24:34;;;;;;;;;;;19.50;49.60;;;;;;10319738;28;93609;-45
2024/01/21 14:29:38;;;;;;;;;;;19.60;49.60;;;;;;10308125;28;92170;-50
2024/01/21 14:34:41;;;;;;;;;;;19.70;49.50;;;;;;10303533;28;93485;-46
2024/01/21 14:39:43;;;;;;;;;;;19.70;49.30;;;;;;10320288;28;94359;-48
2024/01/21 14:44:46;;;;;;;;;;;19.70;50.30;;;;;;10313997;28;96050;-46
2024/01/21 14:49:48;;;;;;;;;;;19.60;49.60;;;;;;10324528;28;94452;-47
2024/01/21 14:54:50;;;;;;;;;;;19.50;49.80;;;;;;10306943;28;94485;-48
2024/01/21 14:59:53;;;;;;;;;;;19.50;49.90;;;;;;10331167;28;94639;-46
2024/01/21 15:04:55;;;;;;;;;;;19.60;50.00;;;;;;10312514;28;93489;-48
2024/01/21 15:09:58;;;;;;;;;;;19.60;49.70;;;;;;10316078;28;93663;-45
2024/01/21 15:15:04;;;;;;;;;;;19.60;49.70;;;;;;10322931;28;95157;-51
2024/01/21 15:20:06;;;;;;;;;;;19.50;49.80;;;;;;10313418;28;93753;-50
2024/01/21 15:25:09;;;;;;;;;;;19.40;50.00;;;;;;10305477;28;94983;-46
2024/01/21 15:30:11;;;;;;;;;;;19.40;50.10;;;;;;10309440;28;93494;-47
2024/01/21 15:35:13;;;;;;;;;;;19.50;50.10;;;;;;10310889;28;96924;-47
2024/01/21 15:40:16;;;;;;;;;;;19.50;50.00;;;;;;10308616;28;93423;-48
2024/01/21 15:45:17;;;;;;;;;;;19.50;49.90;;;;;;10319923;28;93450;-48
2024/01/21 15:50:19;;;;;;;;;;;19.50;49.90;;;;;;10322979;28;94754;-50
2024/01/21 15:55:21;;;;;;;;;;;19.40;50.50;;;;;;10310907;28;94894;-47
2024/01/21 16:00:25;;;;;;;;;;;19.20;50.40;;;;;;10309626;28;94462;-48
2024/01/21 16:05:27;;;;;;;;;;;19.10;50.40;;;;;;10316200;28;93499;-48
2024/01/21 16:10:30;;;;;;;;;;;18.90;50.50;;;;;;10307403;28;92755;-48
2024/01/21 16:15:33;;;;;;;;;;;18.90;50.70;;;;;;10310095;28;94439;-49
2024/01/21 16:20:51;;;;;;;;;;;18.90;50.60;;;;;;10308583;28;94863;-52
2024/01/21 16:25:57;;;;;;;;;;;19.00;50.50;;;;;;10319702;28;97188;-48
2024/01/21 16:30:59;;;;;;;;;;;19.20;50.20;;;;;;10307093;28;94461;-49
2024/01/21 16:36:01;;;;;;;;;;;19.20;50.00;;;;;;10320784;28;93309;-47
2024/01/21 16:41:03;;;;;;;;;;;19.10;49.80;;;;;;10311207;28;93778;-46
2024/01/21 16:46:05;;;;;;;;;;;19.00;50.30;;;;;;10310797;28;92910;-53
2024/01/21 16:51:09;;;;;;;;;;;19.10;51.60;;;;;;10332729;28;93835;-46
2024/01/21 16:56:11;;;;;;;;;;;19.20;51.80;;;;;;10303398;28;96168;-47
2024/01/21 17:01:16;;;;;;;;;;;19.20;53.10;;;;;;10310224;28;93578;-50
2024/01/21 17:06:18;;;;;;;;;;;19.10;54.50;;;;;;10329244;28;93624;-51
2024/01/21 17:11:23;;;;;;;;;;;19.00;54.90;;;;;;10311497;28;93866;-51
2024/01/21 17:16:25;;;;;;;;;;;19.10;59.00;;;;;;10327563;28;96218;-52
2024/01/21 17:21:28;;;;;;;;;;;19.20;62.10;;;;;;10324747;28;94072;-48
2024/01/21 17:26:30;;;;;;;;;;;19.40;60.60;;;;;;10344951;27;94414;-49
2024/01/21 17:31:32;;;;;;;;;;;19.50;59.80;;;;;;10314406;28;94500;-48
2024/01/21 17:36:34;;;;;;;;;;;19.40;59.30;;;;;;10310325;28;93555;-52
2024/01/21 17:41:42;;;;;;;;;;;19.30;59.10;;;;;;10320364;28;94027;-51
2024/01/21 17:46:46;;;;;;;;;;;19.20;59.00;;;;;;10331288;28;94405;-50
2024/01/21 17:51:47;;;;;;;;;;;19.10;58.90;;;;;;10317930;28;93673;-50
2024/01/21 17:56:49;;;;;;;;;;;19.00;58.60;;;;;;10299098;28;93426;-47
2024/01/21 18:01:51;;;;;;;;;;;18.90;58.50;;;;;;10313955;28;93391;-50
2024/01/21 18:06:53;;;;;;;;;;;18.90;59.70;;;;;;10315238;28;96709;-48
2024/01/21 18:11:55;;;;;;;;;;;18.80;59.30;;;;;;10302729;28;93503;-55
2024/01/21 18:16:57;;;;;;;;;;;18.80;59.00;;;;;;10316143;28;94468;-48
2024/01/21 18:21:59;;;;;;;;;;;18.80;58.50;;;;;;10321283;28;94249;-50
2024/01/21 18:27:01;;;;;;;;;;;18.90;58.10;;;;;;10315629;28;94695;-51
2024/01/21 18:32:05;;;;;;;;;;;18.90;57.70;;;;;;10345637;27;94942;-49
2024/01/21 18:37:07;;;;;;;;;;;18.90;57.40;;;;;;10312209;28;94468;-49
2024/01/21 18:42:09;;;;;;;;;;;18.90;57.10;;;;;;10328298;28;94019;-49
2024/01/21 18:47:11;;;;;;;;;;;18.80;57.00;;;;;;10318582;28;94507;-47
2024/01/21 18:52:14;;;;;;;;;;;18.80;56.90;;;;;;10321455;28;93396;-50
2024/01/21 18:57:16;;;;;;;;;;;18.70;56.90;;;;;;10316754;28;96238;-46
2024/01/21 19:02:18;;;;;;;;;;;18.60;56.90;;;;;;10324954;28;94457;-49
2024/01/21 19:07:20;;;;;;;;;;;18.50;57.00;;;;;;10336506;28;93597;-49
2024/01/21 19:12:28;;;;;;;;;;;18.40;57.00;;;;;;10323843;28;93683;-50
2024/01/21 19:17:30;;;;;;;;;;;18.30;57.10;;;;;;10325376;28;94294;-54
2024/01/21 19:22:32;;;;;;;;;;;18.30;57.20;;;;;;10325488;28;93871;-51
2024/01/21 19:27:34;;;;;;;;;;;18.20;57.10;;;;;;10331781;28;95092;-48
2024/01/21 19:32:37;;;;;;;;;;;18.10;57.40;;;;;;10310507;28;92772;-49
2024/01/21 19:37:39;;;;;;;;;;;18.10;57.50;;;;;;10320378;28;93581;-46
2024/01/21 19:42:42;;;;;;;;;;;18.00;57.40;;;;;;10332028;28;93359;-47
2024/01/21 19:47:46;;;;;;;;;;;18.00;57.60;;;;;;10339060;27;96811;-48
2024/01/21 19:52:49;;;;;;;;;;;18.10;57.50;;;;;;10312486;28;93163;-50
2024/01/21 19:57:51;;;;;;;;;;;18.20;57.40;;;;;;10300228;28;93107;-51
2024/01/21 20:02:53;;;;;;;;;;;18.30;57.20;;;;;;10316869;28;93446;-51
2024/01/21 20:07:55;;;;;;;;;;;18.40;56.80;;;;;;10312215;28;93616;-48
2024/01/21 20:12:58;;;;;;;;;;;18.50;56.50;;;;;;10321289;28;94671;-51
2024/01/21 20:18:00;;;;;;;;;;;18.60;56.40;;;;;;10297795;28;93432;-50
2024/01/21 20:23:03;;;;;;;;;;;18.60;56.30;;;;;;10313247;28;92938;-46
2024/01/21 20:28:05;;;;;;;;;;;18.50;56.20;;;;;;10318102;28;95560;-46
2024/01/21 20:33:07;;;;;;;;;;;18.50;56.30;;;;;;10327496;28;93602;-47
2024/01/21 20:38:09;;;;;;;;;;;18.40;57.40;;;;;;10301957;28;97046;-51
2024/01/21 20:43:11;;;;;;;;;;;18.40;57.10;;;;;;10321065;28;94400;-49
2024/01/21 20:48:13;;;;;;;;;;;18.30;56.90;;;;;;10319404;28;94336;-50
2024/01/21 20:53:16;;;;;;;;;;;18.20;56.80;;;;;;10316755;28;93819;-51
2024/01/21 20:58:17;;;;;;;;;;;18.10;56.90;;;;;;10309153;28;93519;-47
2024/01/21 21:03:19;;;;;;;;;;;18.10;57.00;;;;;;10236337;28;1965597;-50
2024/01/21 21:08:21;;;;;;;;;;;18.00;57.60;;;;;;10299956;28;93835;-49
2024/01/21 21:13:23;;;;;;;;;;;18.00;57.60;;;;;;10311629;28;93930;-51
2024/01/21 21:18:25;;;;;;;;;;;17.90;58.90;;;;;;10314238;28;94923;-48
2024/01/21 21:23:27;;;;;;;;;;;17.90;58.70;;;;;;10301866;28;95503;-49
2024/01/21 21:28:29;;;;;;;;;;;17.80;58.60;;;;;;10314382;28;96963;-53
2024/01/21 21:33:31;;;;;;;;;;;17.80;58.40;;;;;;10314989;28;94570;-47
2024/01/21 21:38:33;;;;;;;;;;;17.70;58.40;;;;;;10321238;28;93457;-48
2024/01/21 21:43:37;;;;;;;;;;;17.70;58.50;;;;;;10318553;28;93599;-46
2024/01/21 21:48:39;;;;;;;;;;;17.60;58.50;;;;;;10319992;28;94884;-52
2024/01/21 21:53:42;;;;;;;;;;;17.50;58.50;;;;;;10318102;28;93234;-52
2024/01/21 21:58:45;;;;;;;;;;;17.50;58.40;;;;;;10318475;28;93417;-51
2024/01/21 22:03:50;;;;;;;;;;;17.40;58.40;;;;;;10321535;28;92423;-50
2024/01/21 22:08:52;;;;;;;;;;;17.30;58.30;;;;;;10320377;28;93638;-52
2024/01/21 22:13:53;;;;;;;;;;;17.30;58.30;;;;;;10317594;28;94025;-56
2024/01/21 22:18:55;;;;;;;;;;;17.20;58.40;;;;;;10319876;28;95816;-47
2024/01/21 22:23:57;;;;;;;;;;;17.20;58.40;;;;;;10323889;28;93245;-45
2024/01/21 22:28:59;;;;;;;;;;;17.10;58.30;;;;;;10313640;28;92571;-48
2024/01/21 22:34:00;;;;;;;;;;;17.10;58.30;;;;;;10339575;28;94564;-48
2024/01/21 22:39:03;;;;;;;;;;;17.10;58.30;;;;;;10300751;28;94152;-50
2024/01/21 22:44:05;;;;;;;;;;;17.00;58.20;;;;;;10309599;28;94816;-46
2024/01/21 22:49:06;;;;;;;;;;;17.00;58.20;;;;;;10316284;28;94977;-47
2024/01/21 22:54:08;;;;;;;;;;;16.90;58.10;;;;;;10322628;28;93491;-46
2024/01/21 22:59:11;;;;;;;;;;;16.90;58.20;;;;;;10322495;28;94353;-48
2024/01/21 23:04:12;;;;;;;;;;;16.90;58.10;;;;;;10316964;28;94442;-47
2024/01/21 23:09:14;;;;;;;;;;;16.90;57.70;;;;;;10322744;28;95870;-50
2024/01/21 23:14:16;;;;;;;;;;;16.80;57.40;;;;;;10316793;28;92565;-49
2024/01/21 23:19:18;;;;;;;;;;;16.80;57.00;;;;;;10326191;28;95385;-49
2024/01/21 23:24:20;;;;;;;;;;;16.80;56.40;;;;;;10324233;28;93456;-47
2024/01/21 23:29:21;;;;;;;;;;;16.80;56.20;;;;;;10311625;28;93572;-52
2024/01/21 23:34:23;;;;;;;;;;;16.80;55.80;;;;;;10317444;28;93429;-52
2024/01/21 23:39:25;;;;;;;;;;;16.80;55.70;;;;;;10295668;28;93355;-51
2024/01/21 23:44:27;;;;;;;;;;;16.80;55.40;;;;;;10316186;28;92711;-47
2024/01/21 23:49:29;;;;;;;;;;;16.80;55.10;;;;;;10306012;28;93450;-49
2024/01/21 23:54:31;;;;;;;;;;;16.70;55.30;;;;;;10298815;28;93841;-51
2024/01/21 23:59:33;;;;;;;;;;;16.70;55.70;;;;;;10304546;28;96160;-51
